createdAt,value
2018-11-25T00:01:03.701Z,-0.50
2018-11-25T00:03:31.096Z,-0.50
2018-11-25T00:05:58.495Z,-0.50
2018-11-25T00:08:25.902Z,-0.40
2018-11-25T00:10:53.322Z,-0.50
2018-11-25T00:13:20.706Z,-0.50
2018-11-25T00:15:48.137Z,-0.60
2018-11-25T00:18:15.562Z,-0.60
2018-11-25T00:20:42.943Z,-0.60
2018-11-25T00:23:10.392Z,-0.60
2018-11-25T00:25:37.858Z,-0.60
2018-11-25T00:28:05.604Z,-0.60
2018-11-25T00:30:33.027Z,-0.60
2018-11-25T00:33:00.465Z,-0.60
2018-11-25T00:35:27.874Z,-0.60
2018-11-25T00:37:55.259Z,-0.40
2018-11-25T00:40:22.674Z,-0.30
2018-11-25T00:42:50.132Z,-0.30
2018-11-25T00:45:19.400Z,-0.30
2018-11-25T00:47:47.404Z,-0.30
2018-11-25T00:50:14.804Z,-0.20
2018-11-25T00:52:42.221Z,-0.30
2018-11-25T00:55:10.735Z,-0.40
2018-11-25T00:57:38.145Z,-0.50
2018-11-25T01:00:10.205Z,-0.50
2018-11-25T01:02:37.603Z,-0.60
2018-11-25T01:05:05.140Z,-0.60
2018-11-25T01:07:32.518Z,-0.50
2018-11-25T01:09:59.980Z,-0.50
2018-11-25T01:12:27.344Z,-0.30
2018-11-25T01:14:54.724Z,-0.20
2018-11-25T01:17:22.301Z,-0.20
2018-11-25T01:19:49.683Z,-0.30
2018-11-25T01:22:17.056Z,-0.40
2018-11-25T01:24:44.449Z,-0.30
2018-11-25T01:27:11.901Z,-0.40
2018-11-25T01:29:39.321Z,-0.50
2018-11-25T01:32:07.329Z,-0.40
2018-11-25T01:34:34.736Z,-0.30
2018-11-25T01:37:02.128Z,-0.30
2018-11-25T01:39:29.532Z,-0.30
2018-11-25T01:41:56.967Z,-0.30
2018-11-25T01:44:24.405Z,-0.30
2018-11-25T01:46:51.874Z,-0.40
2018-11-25T01:49:19.267Z,-0.50
2018-11-25T01:51:46.638Z,-0.50
2018-11-25T01:54:14.104Z,-0.60
2018-11-25T01:56:41.498Z,-0.50
2018-11-25T01:59:08.868Z,-0.60
2018-11-25T02:01:36.296Z,-0.60
2018-11-25T02:04:03.996Z,-0.50
2018-11-25T02:06:31.402Z,-0.50
2018-11-25T02:08:58.794Z,-0.50
2018-11-25T02:11:26.205Z,-0.50
2018-11-25T02:13:53.576Z,-0.40
2018-11-25T02:16:21.137Z,-0.30
2018-11-25T02:18:48.516Z,-0.30
2018-11-25T02:21:15.978Z,-0.30
2018-11-25T02:23:43.408Z,-0.20
2018-11-25T02:26:10.841Z,-0.20
2018-11-25T02:28:38.230Z,-0.20
2018-11-25T02:31:05.699Z,-0.20
2018-11-25T02:33:33.234Z,-0.20
2018-11-25T02:36:00.595Z,-0.30
2018-11-25T02:38:28.018Z,-0.40
2018-11-25T02:40:55.411Z,-0.50
2018-11-25T02:43:22.826Z,-0.60
2018-11-25T02:45:50.272Z,-0.50
2018-11-25T02:48:17.698Z,-0.50
2018-11-25T02:50:45.126Z,-0.50
2018-11-25T02:53:12.546Z,-0.60
2018-11-25T02:55:40.006Z,-0.70
2018-11-25T02:58:07.410Z,-0.60
2018-11-25T03:00:34.827Z,-0.50
2018-11-25T03:03:02.281Z,-0.50
2018-11-25T03:05:29.670Z,-0.50
2018-11-25T03:07:57.073Z,-0.60
2018-11-25T03:10:24.526Z,-0.50
2018-11-25T03:12:52.015Z,-0.40
2018-11-25T03:15:19.498Z,-0.30
2018-11-25T03:17:46.938Z,-0.30
2018-11-25T03:20:15.238Z,-0.30
2018-11-25T03:22:42.637Z,-0.30
2018-11-25T03:25:13.172Z,-0.40
2018-11-25T03:27:40.594Z,-0.40
2018-11-25T03:30:20.617Z,-0.50
2018-11-25T03:32:48.984Z,-0.50
2018-11-25T03:35:16.370Z,-0.50
2018-11-25T03:37:43.784Z,-0.60
2018-11-25T03:40:14.051Z,-0.60
2018-11-25T03:42:41.502Z,-0.80
2018-11-25T03:45:10.468Z,-0.90
2018-11-25T03:47:37.898Z,-1.00
2018-11-25T03:50:06.401Z,-1.10
2018-11-25T03:52:33.833Z,-1.00
2018-11-25T03:55:01.241Z,-1.00
2018-11-25T03:57:28.612Z,-1.00
2018-11-25T03:59:56.074Z,-0.90
2018-11-25T04:02:23.483Z,-1.00
2018-11-25T04:04:50.848Z,-1.00
2018-11-25T04:07:18.290Z,-1.00
2018-11-25T04:09:45.689Z,-1.00
2018-11-25T04:12:13.106Z,-1.00
2018-11-25T04:14:40.499Z,-1.10
2018-11-25T04:17:07.941Z,-1.10
2018-11-25T04:19:35.313Z,-1.10
2018-11-25T04:22:02.699Z,-1.00
2018-11-25T04:24:30.121Z,-0.90
2018-11-25T04:26:57.497Z,-0.90
2018-11-25T04:29:24.918Z,-0.80
2018-11-25T04:31:52.348Z,-0.80
2018-11-25T04:34:19.790Z,-0.80
2018-11-25T04:36:47.202Z,-0.70
2018-11-25T04:39:14.638Z,-0.70
2018-11-25T04:41:42.025Z,-0.60
2018-11-25T04:44:09.442Z,-0.60
2018-11-25T04:46:37.019Z,-0.60
2018-11-25T04:49:05.039Z,-0.60
2018-11-25T04:51:32.421Z,-0.70
2018-11-25T04:53:59.852Z,-0.60
2018-11-25T04:56:27.329Z,-0.60
2018-11-25T04:58:54.735Z,-0.60
2018-11-25T05:01:22.125Z,-0.60
2018-11-25T05:03:49.534Z,-0.60
2018-11-25T05:06:16.920Z,-0.50
2018-11-25T05:08:44.336Z,-0.50
2018-11-25T05:11:11.763Z,-0.60
2018-11-25T05:13:39.150Z,-0.60
2018-11-25T05:16:06.586Z,-0.60
2018-11-25T05:18:33.972Z,-0.60
2018-11-25T05:21:01.418Z,-0.60
2018-11-25T05:23:28.818Z,-0.50
2018-11-25T05:25:56.193Z,-0.50
2018-11-25T05:28:23.634Z,-0.50
2018-11-25T05:30:51.053Z,-0.50
2018-11-25T05:33:18.462Z,-0.60
2018-11-25T05:35:45.890Z,-0.60
2018-11-25T05:38:13.333Z,-0.60
2018-11-25T05:40:40.704Z,-0.60
2018-11-25T05:43:08.126Z,-0.60
2018-11-25T05:45:35.533Z,-0.60
2018-11-25T05:48:03.004Z,-0.50
2018-11-25T05:50:30.386Z,-0.50
2018-11-25T05:52:57.845Z,-0.50
2018-11-25T05:55:25.242Z,-0.50
2018-11-25T05:57:52.695Z,-0.50
2018-11-25T06:00:26.785Z,-0.50
2018-11-25T06:02:54.217Z,-0.50
2018-11-25T06:05:21.614Z,-0.50
2018-11-25T06:07:49.061Z,-0.40
2018-11-25T06:10:16.496Z,-0.30
2018-11-25T06:12:44.017Z,-0.30
2018-11-25T06:15:13.322Z,-0.30
2018-11-25T06:17:40.821Z,-0.30
2018-11-25T06:20:10.578Z,-0.20
2018-11-25T06:22:38.058Z,-0.40
2018-11-25T06:25:07.087Z,-0.40
2018-11-25T06:27:38.269Z,-0.30
2018-11-25T06:30:01.996Z,-0.20
2018-11-25T06:32:29.387Z,-0.40
2018-11-25T06:34:56.773Z,-0.40
2018-11-25T06:37:24.181Z,-0.50
2018-11-25T06:39:51.571Z,-0.40
2018-11-25T06:42:18.993Z,-0.40
2018-11-25T06:44:46.429Z,-0.50
2018-11-25T06:47:13.854Z,-0.70
2018-11-25T06:49:41.308Z,-0.70
2018-11-25T06:52:08.709Z,-0.60
2018-11-25T06:54:36.097Z,-0.70
2018-11-25T06:57:03.715Z,-0.70
2018-11-25T06:59:31.101Z,-0.70
2018-11-25T07:01:58.527Z,-0.80
2018-11-25T07:04:25.961Z,-0.90
2018-11-25T07:06:53.391Z,-0.80
2018-11-25T07:09:20.887Z,-0.80
2018-11-25T07:11:48.353Z,-0.80
2018-11-25T07:14:15.745Z,-0.70
2018-11-25T07:16:43.228Z,-0.80
2018-11-25T07:19:10.641Z,-0.70
2018-11-25T07:21:38.055Z,-0.60
2018-11-25T07:24:05.532Z,-0.60
2018-11-25T07:26:32.992Z,-0.60
2018-11-25T07:29:00.440Z,-0.60
2018-11-25T07:31:27.859Z,-0.60
2018-11-25T07:33:55.278Z,-0.60
2018-11-25T07:36:22.734Z,-0.50
2018-11-25T07:38:50.123Z,-0.50
2018-11-25T07:41:17.559Z,-0.60
2018-11-25T07:43:45.910Z,-0.60
2018-11-25T07:46:13.428Z,-0.50
2018-11-25T07:48:40.914Z,-0.50
2018-11-25T07:51:08.343Z,-0.50
2018-11-25T07:53:35.757Z,-0.50
2018-11-25T07:56:03.170Z,-0.60
2018-11-25T07:58:30.566Z,-0.50
2018-11-25T08:00:58.042Z,-0.40
2018-11-25T08:03:25.437Z,-0.50
2018-11-25T08:05:52.836Z,-0.50
2018-11-25T08:08:20.245Z,-0.40
2018-11-25T08:10:47.709Z,-0.40
2018-11-25T08:13:15.209Z,-0.40
2018-11-25T08:15:42.629Z,-0.30
2018-11-25T08:18:11.068Z,-0.20
2018-11-25T08:20:37.436Z,-0.10
2018-11-25T08:23:05.041Z,-0.20
2018-11-25T08:25:32.424Z,-0.20
2018-11-25T08:27:59.841Z,0.00
2018-11-25T08:30:27.280Z,0.10
2018-11-25T08:32:54.729Z,0.20
2018-11-25T08:35:22.160Z,0.10
2018-11-25T08:37:49.574Z,0.10
2018-11-25T08:40:18.249Z,0.20
2018-11-25T08:42:45.869Z,0.30
2018-11-25T08:45:13.843Z,0.30
2018-11-25T08:47:41.383Z,0.30
2018-11-25T08:50:11.811Z,0.40
2018-11-25T08:52:39.585Z,0.30
2018-11-25T08:55:08.633Z,0.30
2018-11-25T08:57:36.002Z,0.40
2018-11-25T09:00:03.814Z,0.40
2018-11-25T09:02:31.308Z,0.40
2018-11-25T09:04:58.717Z,0.40
2018-11-25T09:07:26.177Z,0.40
2018-11-25T09:09:53.632Z,0.50
2018-11-25T09:12:21.070Z,0.50
2018-11-25T09:14:48.445Z,0.50
2018-11-25T09:17:15.865Z,0.50
2018-11-25T09:19:43.265Z,0.50
2018-11-25T09:22:10.707Z,0.50
2018-11-25T09:24:38.119Z,0.40
2018-11-25T09:27:06.051Z,0.50
2018-11-25T09:29:33.469Z,0.50
2018-11-25T09:32:00.859Z,0.60
2018-11-25T09:34:28.306Z,0.60
2018-11-25T09:36:55.696Z,0.50
2018-11-25T09:39:23.124Z,0.50
2018-11-25T09:41:50.515Z,0.60
2018-11-25T09:44:17.899Z,0.60
2018-11-25T09:46:45.318Z,0.50
2018-11-25T09:49:12.746Z,0.50
2018-11-25T09:51:40.186Z,0.40
2018-11-25T09:54:07.573Z,0.40
2018-11-25T09:56:34.977Z,0.40
2018-11-25T09:59:02.425Z,0.50
2018-11-25T10:01:29.830Z,0.50
2018-11-25T10:03:57.247Z,0.40
2018-11-25T10:06:24.686Z,0.50
2018-11-25T10:08:52.135Z,0.50
2018-11-25T10:11:19.526Z,0.60
2018-11-25T10:13:46.934Z,0.60
2018-11-25T10:16:14.404Z,0.60
2018-11-25T10:18:41.823Z,0.70
2018-11-25T10:21:09.257Z,0.70
2018-11-25T10:23:36.664Z,0.80
2018-11-25T10:26:04.244Z,0.80
2018-11-25T10:28:31.649Z,0.80
2018-11-25T10:30:59.071Z,0.80
2018-11-25T10:33:26.503Z,0.90
2018-11-25T10:35:53.990Z,1.00
2018-11-25T10:38:21.373Z,0.90
2018-11-25T10:40:48.803Z,0.90
2018-11-25T10:43:16.204Z,0.80
2018-11-25T10:45:43.603Z,0.80
2018-11-25T10:48:11.040Z,0.90
2018-11-25T10:50:38.472Z,1.00
2018-11-25T10:53:05.890Z,1.00
2018-11-25T10:55:33.323Z,0.80
2018-11-25T10:58:00.733Z,0.80
2018-11-25T11:00:35.154Z,0.90
2018-11-25T11:03:08.347Z,1.00
2018-11-25T11:05:41.533Z,1.10
2018-11-25T11:08:09.639Z,1.20
2018-11-25T11:10:37.109Z,1.20
2018-11-25T11:13:05.596Z,1.10
2018-11-25T11:15:32.997Z,1.10
2018-11-25T11:18:00.418Z,1.20
2018-11-25T11:20:27.837Z,1.20
2018-11-25T11:22:55.264Z,1.20
2018-11-25T11:25:22.677Z,1.10
2018-11-25T11:27:50.065Z,1.10
2018-11-25T11:30:17.494Z,1.00
2018-11-25T11:32:46.331Z,0.90
2018-11-25T11:35:13.770Z,0.80
2018-11-25T11:37:41.152Z,0.70
2018-11-25T11:40:10.140Z,0.80
2018-11-25T11:42:37.333Z,0.70
2018-11-25T11:45:07.859Z,0.70
2018-11-25T11:47:35.291Z,0.60
2018-11-25T11:50:02.963Z,0.50
2018-11-25T11:52:30.394Z,0.60
2018-11-25T11:54:57.822Z,0.60
2018-11-25T11:57:25.229Z,0.60
2018-11-25T11:59:52.673Z,0.70
2018-11-25T12:02:20.102Z,0.70
2018-11-25T12:04:47.560Z,0.60
2018-11-25T12:07:14.946Z,0.70
2018-11-25T12:09:42.349Z,0.80
2018-11-25T12:12:09.785Z,0.90
2018-11-25T12:14:37.227Z,0.80
2018-11-25T12:17:04.742Z,0.70
2018-11-25T12:19:32.156Z,0.80
2018-11-25T12:21:59.594Z,0.80
2018-11-25T12:24:26.997Z,0.90
2018-11-25T12:26:54.391Z,0.80
2018-11-25T12:29:21.790Z,0.90
2018-11-25T12:31:49.173Z,0.90
2018-11-25T12:34:16.586Z,0.80
2018-11-25T12:36:44.019Z,0.80
2018-11-25T12:39:11.398Z,0.80
2018-11-25T12:41:38.829Z,0.90
2018-11-25T12:44:06.272Z,1.00
2018-11-25T12:46:33.710Z,0.90
2018-11-25T12:49:01.278Z,0.80
2018-11-25T12:51:28.657Z,0.80
2018-11-25T12:53:56.046Z,0.80
2018-11-25T12:56:23.489Z,0.80
2018-11-25T12:58:50.918Z,0.90
2018-11-25T13:01:18.319Z,0.90
2018-11-25T13:03:45.701Z,0.90
2018-11-25T13:06:13.145Z,0.90
2018-11-25T13:08:40.573Z,1.00
2018-11-25T13:11:07.981Z,1.00
2018-11-25T13:13:35.343Z,1.00
2018-11-25T13:16:02.824Z,0.90
2018-11-25T13:18:30.203Z,0.90
2018-11-25T13:20:57.595Z,0.90
2018-11-25T13:23:25.044Z,0.90
2018-11-25T13:25:52.662Z,0.90
2018-11-25T13:28:20.035Z,0.90
2018-11-25T13:30:47.462Z,0.80
2018-11-25T13:33:14.859Z,0.80
2018-11-25T13:35:42.266Z,0.70
2018-11-25T13:38:09.672Z,0.70
2018-11-25T13:40:37.075Z,0.60
2018-11-25T13:43:04.913Z,0.50
2018-11-25T13:45:32.343Z,0.50
2018-11-25T13:47:59.740Z,0.50
2018-11-25T13:50:27.226Z,0.40
2018-11-25T13:52:54.626Z,0.40
2018-11-25T13:55:23.406Z,0.30
2018-11-25T13:57:50.819Z,0.30
2018-11-25T14:00:36.142Z,0.20
2018-11-25T14:03:05.857Z,0.20
2018-11-25T14:05:33.268Z,0.10
2018-11-25T14:08:00.687Z,0.00
2018-11-25T14:10:29.980Z,-0.10
2018-11-25T14:12:57.445Z,-0.20
2018-11-25T14:15:25.349Z,-0.20
2018-11-25T14:17:52.752Z,-0.30
2018-11-25T14:20:20.174Z,-0.30
2018-11-25T14:22:47.581Z,-0.40
2018-11-25T14:25:16.464Z,-0.50
2018-11-25T14:27:44.358Z,-0.60
2018-11-25T14:30:15.531Z,-0.60
2018-11-25T14:32:43.004Z,-0.60
2018-11-25T14:35:12.269Z,-0.60
2018-11-25T14:37:39.655Z,-0.70
2018-11-25T14:40:09.629Z,-0.80
2018-11-25T14:42:37.802Z,-0.80
2018-11-25T14:45:07.850Z,-0.80
2018-11-25T14:47:35.260Z,-0.80
2018-11-25T14:50:02.889Z,-0.90
2018-11-25T14:52:30.309Z,-0.90
2018-11-25T14:54:57.745Z,-1.00
2018-11-25T14:57:25.412Z,-1.00
2018-11-25T14:59:52.797Z,-1.00
2018-11-25T15:02:20.190Z,-1.10
2018-11-25T15:04:47.617Z,-1.20
2018-11-25T15:07:15.006Z,-1.30
2018-11-25T15:09:42.390Z,-1.40
2018-11-25T15:12:09.811Z,-1.30
2018-11-25T15:14:37.215Z,-1.20
2018-11-25T15:17:04.936Z,-1.20
2018-11-25T15:19:32.337Z,-1.20
2018-11-25T15:21:59.751Z,-1.40
2018-11-25T15:24:27.145Z,-1.40
2018-11-25T15:26:54.587Z,-1.50
2018-11-25T15:29:21.961Z,-1.60
2018-11-25T15:31:49.374Z,-1.60
2018-11-25T15:34:16.863Z,-1.60
2018-11-25T15:36:44.240Z,-1.60
2018-11-25T15:39:11.768Z,-1.70
2018-11-25T15:41:39.182Z,-1.70
2018-11-25T15:44:06.598Z,-1.70
2018-11-25T15:46:34.037Z,-1.80
2018-11-25T15:49:01.463Z,-1.80
2018-11-25T15:51:28.912Z,-1.80
2018-11-25T15:53:56.304Z,-1.80
2018-11-25T15:56:23.748Z,-1.90
2018-11-25T15:58:51.149Z,-2.00
2018-11-25T16:01:18.557Z,-2.10
2018-11-25T16:03:46.012Z,-2.00
2018-11-25T16:06:18.898Z,-2.00
2018-11-25T16:08:46.356Z,-2.10
2018-11-25T16:11:13.761Z,-2.00
2018-11-25T16:13:41.193Z,-2.10
2018-11-25T16:16:08.613Z,-2.10
2018-11-25T16:18:36.012Z,-2.20
2018-11-25T16:21:03.441Z,-2.20
2018-11-25T16:23:30.874Z,-2.40
2018-11-25T16:26:01.119Z,-2.40
2018-11-25T16:28:36.450Z,-2.40
2018-11-25T16:31:04.473Z,-2.60
2018-11-25T16:33:31.880Z,-2.60
2018-11-25T16:35:59.318Z,-2.70
2018-11-25T16:38:26.707Z,-2.80
2018-11-25T16:40:54.093Z,-2.80
2018-11-25T16:43:21.534Z,-2.80
2018-11-25T16:45:48.972Z,-2.90
2018-11-25T16:48:16.362Z,-3.00
2018-11-25T16:50:43.821Z,-2.90
2018-11-25T16:53:11.234Z,-2.90
2018-11-25T16:55:38.636Z,-2.90
2018-11-25T16:58:06.319Z,-2.80
2018-11-25T17:00:33.750Z,-2.70
2018-11-25T17:03:01.147Z,-2.60
2018-11-25T17:05:30.275Z,-2.60
2018-11-25T17:08:00.787Z,-2.60
2018-11-25T17:10:28.156Z,-2.50
2018-11-25T17:12:55.579Z,-2.50
2018-11-25T17:15:24.730Z,-2.60
2018-11-25T17:17:52.136Z,-2.60
2018-11-25T17:20:19.698Z,-2.60
2018-11-25T17:22:47.091Z,-2.70
2018-11-25T17:25:14.469Z,-2.70
2018-11-25T17:27:42.319Z,-2.60
2018-11-25T17:30:12.076Z,-2.60
2018-11-25T17:32:39.494Z,-2.60
2018-11-25T17:35:08.985Z,-2.60
2018-11-25T17:37:36.425Z,-2.60
2018-11-25T17:40:03.993Z,-2.60
2018-11-25T17:42:31.425Z,-2.70
2018-11-25T17:44:58.826Z,-2.70
2018-11-25T17:47:26.196Z,-2.70
2018-11-25T17:49:53.610Z,-2.70
2018-11-25T17:52:21.053Z,-2.70
2018-11-25T17:54:48.507Z,-2.80
2018-11-25T17:57:15.923Z,-2.80
2018-11-25T17:59:43.377Z,-2.90
2018-11-25T18:02:10.814Z,-2.90
2018-11-25T18:04:38.229Z,-3.00
2018-11-25T18:07:05.683Z,-3.10
2018-11-25T18:09:33.073Z,-3.10
2018-11-25T18:12:00.489Z,-3.20
2018-11-25T18:14:27.924Z,-3.30
2018-11-25T18:16:55.309Z,-3.40
2018-11-25T18:19:23.524Z,-3.50
2018-11-25T18:22:08.853Z,-3.60
2018-11-25T18:24:36.282Z,-3.70
2018-11-25T18:27:04.198Z,-3.80
2018-11-25T18:29:31.613Z,-3.90
2018-11-25T18:31:59.027Z,-4.10
2018-11-25T18:34:26.410Z,-4.20
2018-11-25T18:36:53.819Z,-4.20
2018-11-25T18:39:21.261Z,-4.10
2018-11-25T18:41:48.642Z,-4.10
2018-11-25T18:44:16.129Z,-4.10
2018-11-25T18:46:47.031Z,-4.20
2018-11-25T18:49:11.013Z,-4.20
2018-11-25T18:51:38.462Z,-4.30
2018-11-25T18:54:07.230Z,-4.30
2018-11-25T18:56:34.694Z,-4.30
2018-11-25T18:59:02.153Z,-4.40
2018-11-25T19:02:07.337Z,-4.40
2018-11-25T19:04:34.781Z,-4.40
2018-11-25T19:07:02.177Z,-4.50
2018-11-25T19:09:29.630Z,-4.60
2018-11-25T19:11:57.042Z,-4.70
2018-11-25T19:14:24.462Z,-4.70
2018-11-25T19:16:51.871Z,-4.80
2018-11-25T19:19:19.272Z,-4.90
2018-11-25T19:21:46.717Z,-4.90
2018-11-25T19:24:14.114Z,-5.00
2018-11-25T19:26:41.524Z,-5.00
2018-11-25T19:29:08.946Z,-5.10
2018-11-25T19:31:36.325Z,-5.10
2018-11-25T19:34:03.809Z,-5.10
2018-11-25T19:36:31.207Z,-5.20
2018-11-25T19:38:58.638Z,-5.20
2018-11-25T19:41:26.051Z,-5.20
2018-11-25T19:43:53.485Z,-5.30
2018-11-25T19:46:20.921Z,-5.30
2018-11-25T19:48:48.342Z,-5.40
2018-11-25T19:51:17.716Z,-5.40
2018-11-25T19:53:43.167Z,-5.40
2018-11-25T19:56:10.588Z,-5.50
2018-11-25T19:58:38.019Z,-5.50
2018-11-25T20:01:06.186Z,-5.60
2018-11-25T20:03:33.593Z,-5.60
2018-11-25T20:06:00.999Z,-5.60
2018-11-25T20:08:28.417Z,-5.70
2018-11-25T20:10:55.793Z,-5.70
2018-11-25T20:13:23.206Z,-5.80
2018-11-25T20:15:50.653Z,-5.80
2018-11-25T20:18:18.042Z,-5.80
2018-11-25T20:20:51.191Z,-5.90
2018-11-25T20:23:18.627Z,-5.90
2018-11-25T20:25:46.021Z,-5.90
2018-11-25T20:28:13.449Z,-5.90
2018-11-25T20:30:40.907Z,-5.80
2018-11-25T20:33:13.898Z,-5.80
2018-11-25T20:35:41.289Z,-5.80
2018-11-25T20:39:17.425Z,-5.90
2018-11-25T20:41:44.867Z,-6.00
2018-11-25T20:44:12.366Z,-6.00
2018-11-25T20:46:45.449Z,-6.00
2018-11-25T20:49:12.937Z,-6.00
2018-11-25T20:51:45.971Z,-6.10
2018-11-25T20:54:13.418Z,-6.10
2018-11-25T20:56:40.849Z,-6.20
2018-11-25T20:59:08.285Z,-6.20
2018-11-25T21:01:35.669Z,-6.30
2018-11-25T21:04:03.161Z,-6.40
2018-11-25T21:06:30.615Z,-6.40
2018-11-25T21:08:58.030Z,-6.50
2018-11-25T21:11:25.440Z,-6.50
2018-11-25T21:13:52.871Z,-6.50
2018-11-25T21:16:20.338Z,-6.60
2018-11-25T21:18:47.793Z,-6.70
2018-11-25T21:21:15.179Z,-6.70
2018-11-25T21:23:42.606Z,-6.70
2018-11-25T21:26:10.037Z,-6.80
2018-11-25T21:28:37.516Z,-6.80
2018-11-25T21:31:05.008Z,-6.80
2018-11-25T21:33:32.421Z,-6.90
2018-11-25T21:35:59.814Z,-6.90
2018-11-25T21:38:27.215Z,-6.90
2018-11-25T21:40:54.642Z,-6.90
2018-11-25T21:43:22.033Z,-6.90
2018-11-25T21:45:49.483Z,-6.90
2018-11-25T21:48:16.979Z,-6.90
2018-11-25T21:50:44.357Z,-6.90
2018-11-25T21:53:11.741Z,-7.00
2018-11-25T21:55:39.169Z,-7.00
2018-11-25T21:58:06.653Z,-6.90
2018-11-25T22:00:34.054Z,-7.00
2018-11-25T22:03:01.433Z,-7.00
2018-11-25T22:05:28.841Z,-7.00
2018-11-25T22:07:56.204Z,-7.00
2018-11-25T22:10:23.621Z,-7.00
2018-11-25T22:12:51.022Z,-7.10
2018-11-25T22:15:19.734Z,-7.20
2018-11-25T22:17:47.294Z,-7.20
2018-11-25T22:20:15.272Z,-7.20
2018-11-25T22:22:42.729Z,-7.20
2018-11-25T22:25:11.109Z,-7.20
2018-11-25T22:27:38.538Z,-7.20
2018-11-25T22:30:12.319Z,-7.20
2018-11-25T22:32:39.832Z,-7.20
2018-11-25T22:35:09.959Z,-7.30
2018-11-25T22:37:37.414Z,-7.20
2018-11-25T22:40:06.857Z,-7.20
2018-11-25T22:42:34.311Z,-7.10
2018-11-25T22:45:01.738Z,-7.20
2018-11-25T22:47:29.124Z,-7.30
2018-11-25T22:49:56.571Z,-7.30
2018-11-25T22:52:23.982Z,-7.40
2018-11-25T22:54:51.365Z,-7.30
2018-11-25T22:57:18.833Z,-7.40
2018-11-25T22:59:46.279Z,-7.40
2018-11-25T23:02:13.709Z,-7.30
2018-11-25T23:04:52.797Z,-7.30
2018-11-25T23:07:20.239Z,-7.20
2018-11-25T23:09:47.632Z,-7.20
2018-11-25T23:12:15.065Z,-7.20
2018-11-25T23:14:42.498Z,-7.30
2018-11-25T23:17:09.927Z,-7.30
2018-11-25T23:19:37.394Z,-7.30
2018-11-25T23:22:05.166Z,-7.40
2018-11-25T23:24:32.598Z,-7.40
2018-11-25T23:27:00.014Z,-7.40
2018-11-25T23:29:27.388Z,-7.40
2018-11-25T23:31:54.842Z,-7.40
2018-11-25T23:34:22.237Z,-7.40
2018-11-25T23:36:49.725Z,-7.40
2018-11-25T23:39:17.153Z,-7.40
2018-11-25T23:41:44.588Z,-7.50
2018-11-25T23:44:11.990Z,-7.50
2018-11-25T23:46:39.427Z,-7.40
2018-11-25T23:49:06.835Z,-7.30
2018-11-25T23:51:34.276Z,-7.40
2018-11-25T23:54:01.696Z,-7.60
2018-11-25T23:56:29.200Z,-7.70
2018-11-25T23:58:57.129Z,-7.80
